Terminal Aerodrome Forecast
Issued by NWS Indianapolis, IN

Home | Current Version | Previous Version | Text Only | Print | Product List | Glossary On
Versions: 1 2 3 4 5 6 7 8 9 10 11 12 13 14 15 16 17 18 19 20 21 22 23 24 25 26
000
FTUS43 KIND 031720
TAFIND
TAF
KIND 031720Z 0318/0424 28004KT P6SM OVC035
     FM040100 35004KT P6SM OVC100
     FM041800 VRB03KT P6SM -RA OVC070
     FM042300 VRB03KT 4SM -RA OVC008=

USA.gov is the U.S. government's official web portal to all federal, state and local government web resources and services.